Terminal Aerodrome Forecast
Issued by NWS Cleveland, OH

Home | Current Version | Previous Version | Graphics & Text | Print | Product List | Glossary On
Versions: 1 2 3 4 5 6 7 8 9 10 11 12 13 14 15 16 17 18
000
FTUS41 KCLE 202326
TAFERI
TAF
KERI 202326Z 2100/2124 20008KT P6SM VCTS SCT003 OVC050CB
      TEMPO 2100/2104 VRB20G35KT 2SM TSRA BKN003CB OVC035
     FM210500 25012G22KT P6SM OVC006
     FM211700 27015G25KT P6SM OVC025=

USA.gov is the U.S. government's official web portal to all federal, state and local government web resources and services.